Terminal Aerodrome Forecast
Issued by NWS Detroit/Pontiac, MI

Home | Current Version | Previous Version | Text Only | Print | Product List | Glossary On
Versions: 1 2 3 4 5 6 7 8 9 10 11 12 13 14 15 16 17 18 19 20 21 22 23 24 25 26
000
FTUS43 KDTX 162335
TAFDTW
TAF
KDTW 162335Z 1700/1806 09005KT 4SM -SHRA BR OVC025
      TEMPO 1700/1702 2SM -FZRA OVC015
     FM170200 09005KT 2SM -RA BR OVC008
     FM170500 10007KT 1SM RA BR OVC004
     FM171100 12005KT 3/4SM SHRA BR VV003
     FM171600 22012KT 5SM BR OVC015
     FM180100 27015KT 5SM -SHRA BR OVC008=

USA.gov is the U.S. government's official web portal to all federal, state and local government web resources and services.